sensor_id;sensor_type;location;lat;lon;timestamp;P1;durP1;ratioP1;P2;durP2;ratioP2
71777;SDS011;59609;52.430;4.668;2023-10-19T00:02:04;17.60;;;10.02;;
71777;SDS011;59609;52.430;4.668;2023-10-19T00:04:30;18.90;;;9.45;;
71777;SDS011;59609;52.430;4.668;2023-10-19T00:06:57;15.85;;;9.65;;
71777;SDS011;59609;52.430;4.668;2023-10-19T00:09:23;16.13;;;9.30;;
71777;SDS011;59609;52.430;4.668;2023-10-19T00:11:48;17.17;;;9.43;;
71777;SDS011;59609;52.430;4.668;2023-10-19T00:16:45;15.93;;;9.32;;
71777;SDS011;59609;52.430;4.668;2023-10-19T00:19:25;13.02;;;8.57;;
71777;SDS011;59609;52.430;4.668;2023-10-19T00:21:53;15.05;;;8.98;;
71777;SDS011;59609;52.430;4.668;2023-10-19T00:24:20;15.98;;;9.38;;
71777;SDS011;59609;52.430;4.668;2023-10-19T00:26:47;17.05;;;9.35;;
71777;SDS011;59609;52.430;4.668;2023-10-19T00:29:13;19.17;;;9.95;;
71777;SDS011;59609;52.430;4.668;2023-10-19T00:32:01;16.25;;;9.23;;
71777;SDS011;59609;52.430;4.668;2023-10-19T00:34:27;18.42;;;9.82;;
71777;SDS011;59609;52.430;4.668;2023-10-19T00:36:54;15.63;;;9.57;;
71777;SDS011;59609;52.430;4.668;2023-10-19T00:39:32;17.80;;;9.82;;
71777;SDS011;59609;52.430;4.668;2023-10-19T00:42:08;15.80;;;9.15;;
71777;SDS011;59609;52.430;4.668;2023-10-19T00:44:33;18.70;;;10.60;;
71777;SDS011;59609;52.430;4.668;2023-10-19T00:47:08;16.40;;;10.05;;
71777;SDS011;59609;52.430;4.668;2023-10-19T00:49:47;18.05;;;10.23;;
71777;SDS011;59609;52.430;4.668;2023-10-19T00:52:13;18.63;;;10.07;;
71777;SDS011;59609;52.430;4.668;2023-10-19T00:54:45;17.95;;;10.52;;
71777;SDS011;59609;52.430;4.668;2023-10-19T00:57:14;16.60;;;9.80;;
71777;SDS011;59609;52.430;4.668;2023-10-19T00:59:44;17.45;;;10.43;;
71777;SDS011;59609;52.430;4.668;2023-10-19T01:02:13;17.77;;;10.18;;
71777;SDS011;59609;52.430;4.668;2023-10-19T01:04:45;16.92;;;10.13;;
71777;SDS011;59609;52.430;4.668;2023-10-19T01:07:15;16.35;;;10.02;;
71777;SDS011;59609;52.430;4.668;2023-10-19T01:09:46;15.88;;;9.55;;
71777;SDS011;59609;52.430;4.668;2023-10-19T01:12:12;16.83;;;10.10;;
71777;SDS011;59609;52.430;4.668;2023-10-19T01:15:17;16.50;;;9.25;;
71777;SDS011;59609;52.430;4.668;2023-10-19T01:17:45;15.70;;;9.75;;
71777;SDS011;59609;52.430;4.668;2023-10-19T01:20:15;16.42;;;9.50;;
71777;SDS011;59609;52.430;4.668;2023-10-19T01:25:14;15.40;;;9.40;;
71777;SDS011;59609;52.430;4.668;2023-10-19T01:27:49;16.10;;;9.73;;
71777;SDS011;59609;52.430;4.668;2023-10-19T01:30:19;16.30;;;10.30;;
71777;SDS011;59609;52.430;4.668;2023-10-19T01:32:45;16.70;;;10.07;;
71777;SDS011;59609;52.430;4.668;2023-10-19T01:35:10;17.10;;;9.45;;
71777;SDS011;59609;52.430;4.668;2023-10-19T01:37:36;17.13;;;9.93;;
71777;SDS011;59609;52.430;4.668;2023-10-19T01:40:03;16.30;;;9.88;;
71777;SDS011;59609;52.430;4.668;2023-10-19T01:42:29;17.83;;;10.95;;
71777;SDS011;59609;52.430;4.668;2023-10-19T01:44:55;16.27;;;9.77;;
71777;SDS011;59609;52.430;4.668;2023-10-19T01:47:21;16.73;;;10.20;;
71777;SDS011;59609;52.430;4.668;2023-10-19T01:49:47;18.13;;;10.80;;
71777;SDS011;59609;52.430;4.668;2023-10-19T01:52:17;18.05;;;10.60;;
71777;SDS011;59609;52.430;4.668;2023-10-19T01:54:42;17.85;;;11.60;;
71777;SDS011;59609;52.430;4.668;2023-10-19T01:57:08;18.40;;;11.05;;
71777;SDS011;59609;52.430;4.668;2023-10-19T01:59:33;16.53;;;10.57;;
71777;SDS011;59609;52.430;4.668;2023-10-19T02:02:00;19.38;;;11.57;;
71777;SDS011;59609;52.430;4.668;2023-10-19T02:04:27;21.33;;;11.68;;
71777;SDS011;59609;52.430;4.668;2023-10-19T02:06:54;17.67;;;10.98;;
71777;SDS011;59609;52.430;4.668;2023-10-19T02:09:19;20.15;;;11.23;;
71777;SDS011;59609;52.430;4.668;2023-10-19T02:12:13;20.10;;;12.25;;
71777;SDS011;59609;52.430;4.668;2023-10-19T02:14:39;19.10;;;11.45;;
71777;SDS011;59609;52.430;4.668;2023-10-19T02:17:04;22.00;;;12.13;;
71777;SDS011;59609;52.430;4.668;2023-10-19T02:19:30;19.27;;;11.73;;
71777;SDS011;59609;52.430;4.668;2023-10-19T02:21:56;22.50;;;13.13;;
71777;SDS011;59609;52.430;4.668;2023-10-19T02:24:22;22.88;;;13.55;;
71777;SDS011;59609;52.430;4.668;2023-10-19T02:26:48;23.47;;;13.00;;
71777;SDS011;59609;52.430;4.668;2023-10-19T02:29:16;25.65;;;13.88;;
71777;SDS011;59609;52.430;4.668;2023-10-19T02:31:41;25.27;;;14.07;;
71777;SDS011;59609;52.430;4.668;2023-10-19T02:34:07;24.83;;;13.77;;
71777;SDS011;59609;52.430;4.668;2023-10-19T02:36:34;26.92;;;15.30;;
71777;SDS011;59609;52.430;4.668;2023-10-19T02:39:03;26.75;;;15.15;;
71777;SDS011;59609;52.430;4.668;2023-10-19T02:41:32;26.50;;;14.23;;
71777;SDS011;59609;52.430;4.668;2023-10-19T02:44:00;29.25;;;15.68;;
71777;SDS011;59609;52.430;4.668;2023-10-19T02:49:03;29.80;;;14.57;;
71777;SDS011;59609;52.430;4.668;2023-10-19T02:51:29;27.15;;;14.82;;
71777;SDS011;59609;52.430;4.668;2023-10-19T02:53:55;27.63;;;14.93;;
71777;SDS011;59609;52.430;4.668;2023-10-19T02:56:20;31.83;;;15.50;;
71777;SDS011;59609;52.430;4.668;2023-10-19T02:58:48;28.42;;;15.35;;
71777;SDS011;59609;52.430;4.668;2023-10-19T03:01:17;28.33;;;15.68;;
71777;SDS011;59609;52.430;4.668;2023-10-19T03:03:46;28.42;;;15.13;;
71777;SDS011;59609;52.430;4.668;2023-10-19T03:06:12;28.75;;;15.27;;
71777;SDS011;59609;52.430;4.668;2023-10-19T03:08:37;26.58;;;15.38;;
71777;SDS011;59609;52.430;4.668;2023-10-19T03:11:02;27.10;;;15.30;;
71777;SDS011;59609;52.430;4.668;2023-10-19T03:13:32;28.83;;;15.57;;
71777;SDS011;59609;52.430;4.668;2023-10-19T03:15:58;25.73;;;13.77;;
71777;SDS011;59609;52.430;4.668;2023-10-19T03:18:24;24.25;;;14.00;;
71777;SDS011;59609;52.430;4.668;2023-10-19T03:20:50;25.67;;;13.10;;
71777;SDS011;59609;52.430;4.668;2023-10-19T03:23:16;23.98;;;12.02;;
71777;SDS011;59609;52.430;4.668;2023-10-19T03:25:41;25.93;;;12.60;;
71777;SDS011;59609;52.430;4.668;2023-10-19T03:28:30;23.30;;;12.30;;
71777;SDS011;59609;52.430;4.668;2023-10-19T03:31:00;22.67;;;11.32;;
71777;SDS011;59609;52.430;4.668;2023-10-19T03:33:25;26.27;;;12.27;;
71777;SDS011;59609;52.430;4.668;2023-10-19T03:35:52;21.40;;;11.07;;
71777;SDS011;59609;52.430;4.668;2023-10-19T03:38:19;21.13;;;11.80;;
71777;SDS011;59609;52.430;4.668;2023-10-19T03:40:49;23.55;;;11.07;;
71777;SDS011;59609;52.430;4.668;2023-10-19T03:43:20;21.20;;;11.07;;
71777;SDS011;59609;52.430;4.668;2023-10-19T03:45:48;19.02;;;9.82;;
71777;SDS011;59609;52.430;4.668;2023-10-19T03:48:18;18.30;;;9.52;;
71777;SDS011;59609;52.430;4.668;2023-10-19T03:50:49;16.52;;;9.35;;
71777;SDS011;59609;52.430;4.668;2023-10-19T03:53:16;18.30;;;9.38;;
71777;SDS011;59609;52.430;4.668;2023-10-19T03:55:42;16.55;;;8.43;;
71777;SDS011;59609;52.430;4.668;2023-10-19T03:58:08;15.43;;;7.95;;
71777;SDS011;59609;52.430;4.668;2023-10-19T04:00:34;16.77;;;7.80;;
71777;SDS011;59609;52.430;4.668;2023-10-19T04:02:59;16.70;;;7.70;;
71777;SDS011;59609;52.430;4.668;2023-10-19T04:05:24;15.70;;;7.60;;
71777;SDS011;59609;52.430;4.668;2023-10-19T04:07:51;13.40;;;6.90;;
71777;SDS011;59609;52.430;4.668;2023-10-19T04:10:30;15.82;;;7.15;;
71777;SDS011;59609;52.430;4.668;2023-10-19T04:12:55;12.15;;;5.80;;
71777;SDS011;59609;52.430;4.668;2023-10-19T04:15:22;10.18;;;6.10;;
71777;SDS011;59609;52.430;4.668;2023-10-19T04:17:47;13.83;;;6.23;;
71777;SDS011;59609;52.430;4.668;2023-10-19T04:20:18;12.98;;;6.53;;
71777;SDS011;59609;52.430;4.668;2023-10-19T04:22:43;9.93;;;5.43;;
71777;SDS011;59609;52.430;4.668;2023-10-19T04:25:09;10.93;;;5.50;;
71777;SDS011;59609;52.430;4.668;2023-10-19T04:27:37;9.68;;;5.53;;
71777;SDS011;59609;52.430;4.668;2023-10-19T04:30:02;10.48;;;4.93;;
71777;SDS011;59609;52.430;4.668;2023-10-19T04:32:28;7.65;;;4.47;;
71777;SDS011;59609;52.430;4.668;2023-10-19T04:34:53;8.07;;;5.00;;
71777;SDS011;59609;52.430;4.668;2023-10-19T04:37:19;9.52;;;4.70;;
71777;SDS011;59609;52.430;4.668;2023-10-19T04:39:44;10.50;;;4.53;;
71777;SDS011;59609;52.430;4.668;2023-10-19T04:42:10;6.10;;;4.57;;
71777;SDS011;59609;52.430;4.668;2023-10-19T04:44:35;8.50;;;3.97;;
71777;SDS011;59609;52.430;4.668;2023-10-19T04:47:00;9.33;;;4.87;;
71777;SDS011;59609;52.430;4.668;2023-10-19T04:49:25;6.43;;;3.60;;
71777;SDS011;59609;52.430;4.668;2023-10-19T04:51:50;6.90;;;3.93;;
71777;SDS011;59609;52.430;4.668;2023-10-19T04:54:16;7.57;;;3.40;;
71777;SDS011;59609;52.430;4.668;2023-10-19T04:56:41;5.70;;;3.10;;
71777;SDS011;59609;52.430;4.668;2023-10-19T04:59:06;6.33;;;2.90;;
71777;SDS011;59609;52.430;4.668;2023-10-19T05:01:31;9.15;;;3.53;;
71777;SDS011;59609;52.430;4.668;2023-10-19T05:04:00;5.15;;;3.03;;
71777;SDS011;59609;52.430;4.668;2023-10-19T05:06:25;8.60;;;3.00;;
71777;SDS011;59609;52.430;4.668;2023-10-19T05:08:50;9.73;;;2.90;;
71777;SDS011;59609;52.430;4.668;2023-10-19T05:11:17;5.30;;;3.00;;
71777;SDS011;59609;52.430;4.668;2023-10-19T05:13:42;3.97;;;2.60;;
71777;SDS011;59609;52.430;4.668;2023-10-19T05:16:07;4.93;;;3.10;;
71777;SDS011;59609;52.430;4.668;2023-10-19T05:18:32;5.27;;;2.90;;
71777;SDS011;59609;52.430;4.668;2023-10-19T05:20:59;4.47;;;2.60;;
71777;SDS011;59609;52.430;4.668;2023-10-19T05:23:26;9.50;;;2.88;;
71777;SDS011;59609;52.430;4.668;2023-10-19T05:26:03;5.57;;;2.17;;
71777;SDS011;59609;52.430;4.668;2023-10-19T05:28:28;4.22;;;2.28;;
71777;SDS011;59609;52.430;4.668;2023-10-19T05:30:53;9.50;;;2.55;;
71777;SDS011;59609;52.430;4.668;2023-10-19T05:33:19;5.68;;;2.13;;
71777;SDS011;59609;52.430;4.668;2023-10-19T05:35:46;6.13;;;2.03;;
71777;SDS011;59609;52.430;4.668;2023-10-19T05:38:11;3.75;;;1.98;;
71777;SDS011;59609;52.430;4.668;2023-10-19T05:40:36;5.10;;;2.23;;
71777;SDS011;59609;52.430;4.668;2023-10-19T05:43:04;3.80;;;1.92;;
71777;SDS011;59609;52.430;4.668;2023-10-19T05:45:29;6.80;;;2.08;;
71777;SDS011;59609;52.430;4.668;2023-10-19T05:47:55;3.77;;;2.00;;
71777;SDS011;59609;52.430;4.668;2023-10-19T05:50:20;5.32;;;1.90;;
71777;SDS011;59609;52.430;4.668;2023-10-19T05:52:45;3.77;;;1.93;;
71777;SDS011;59609;52.430;4.668;2023-10-19T05:55:12;5.28;;;1.90;;
71777;SDS011;59609;52.430;4.668;2023-10-19T05:57:37;4.22;;;1.65;;
71777;SDS011;59609;52.430;4.668;2023-10-19T06:00:06;3.67;;;1.83;;
71777;SDS011;59609;52.430;4.668;2023-10-19T06:02:31;7.32;;;2.92;;
71777;SDS011;59609;52.430;4.668;2023-10-19T06:04:56;5.30;;;1.70;;
71777;SDS011;59609;52.430;4.668;2023-10-19T06:07:22;4.32;;;1.92;;
71777;SDS011;59609;52.430;4.668;2023-10-19T06:09:49;2.55;;;1.60;;
71777;SDS011;59609;52.430;4.668;2023-10-19T06:12:15;3.03;;;2.07;;
71777;SDS011;59609;52.430;4.668;2023-10-19T06:14:40;5.13;;;1.80;;
71777;SDS011;59609;52.430;4.668;2023-10-19T06:17:05;4.17;;;1.63;;
71777;SDS011;59609;52.430;4.668;2023-10-19T06:19:30;7.00;;;1.50;;
71777;SDS011;59609;52.430;4.668;2023-10-19T06:21:55;7.93;;;1.90;;
71777;SDS011;59609;52.430;4.668;2023-10-19T06:24:21;6.70;;;1.70;;
71777;SDS011;59609;52.430;4.668;2023-10-19T06:26:46;3.03;;;1.30;;
71777;SDS011;59609;52.430;4.668;2023-10-19T06:29:11;4.33;;;1.67;;
71777;SDS011;59609;52.430;4.668;2023-10-19T06:31:36;5.73;;;1.90;;
71777;SDS011;59609;52.430;4.668;2023-10-19T06:34:04;5.82;;;1.88;;
71777;SDS011;59609;52.430;4.668;2023-10-19T06:36:30;3.57;;;1.67;;
71777;SDS011;59609;52.430;4.668;2023-10-19T06:38:55;3.13;;;1.80;;
71777;SDS011;59609;52.430;4.668;2023-10-19T06:41:20;5.17;;;1.77;;
71777;SDS011;59609;52.430;4.668;2023-10-19T06:43:46;3.70;;;1.80;;
71777;SDS011;59609;52.430;4.668;2023-10-19T06:46:11;6.22;;;1.88;;
71777;SDS011;59609;52.430;4.668;2023-10-19T06:48:37;3.00;;;1.80;;
71777;SDS011;59609;52.430;4.668;2023-10-19T06:51:02;4.53;;;1.85;;
71777;SDS011;59609;52.430;4.668;2023-10-19T06:53:27;4.72;;;2.22;;
71777;SDS011;59609;52.430;4.668;2023-10-19T06:55:53;6.15;;;1.90;;
71777;SDS011;59609;52.430;4.668;2023-10-19T06:58:19;7.78;;;2.30;;
71777;SDS011;59609;52.430;4.668;2023-10-19T07:00:45;4.50;;;1.83;;
71777;SDS011;59609;52.430;4.668;2023-10-19T07:03:10;6.35;;;2.45;;
71777;SDS011;59609;52.430;4.668;2023-10-19T07:05:36;4.85;;;3.72;;
71777;SDS011;59609;52.430;4.668;2023-10-19T07:08:01;8.50;;;5.10;;
71777;SDS011;59609;52.430;4.668;2023-10-19T07:10:27;7.43;;;4.18;;
71777;SDS011;59609;52.430;4.668;2023-10-19T07:12:54;7.28;;;4.63;;
71777;SDS011;59609;52.430;4.668;2023-10-19T07:15:19;5.28;;;4.78;;
71777;SDS011;59609;52.430;4.668;2023-10-19T07:17:48;8.27;;;4.50;;
71777;SDS011;59609;52.430;4.668;2023-10-19T07:20:15;7.65;;;4.50;;
71777;SDS011;59609;52.430;4.668;2023-10-19T07:23:01;6.90;;;4.95;;
71777;SDS011;59609;52.430;4.668;2023-10-19T07:25:43;5.53;;;4.15;;
71777;SDS011;59609;52.430;4.668;2023-10-19T07:28:11;7.57;;;4.97;;
71777;SDS011;59609;52.430;4.668;2023-10-19T07:30:37;5.55;;;4.30;;
71777;SDS011;59609;52.430;4.668;2023-10-19T07:33:02;6.15;;;4.18;;
71777;SDS011;59609;52.430;4.668;2023-10-19T07:35:29;6.97;;;5.15;;
71777;SDS011;59609;52.430;4.668;2023-10-19T07:37:58;9.77;;;4.95;;
71777;SDS011;59609;52.430;4.668;2023-10-19T07:40:24;4.97;;;4.57;;
71777;SDS011;59609;52.430;4.668;2023-10-19T07:42:49;5.10;;;4.53;;
71777;SDS011;59609;52.430;4.668;2023-10-19T07:45:18;5.40;;;4.70;;
71777;SDS011;59609;52.430;4.668;2023-10-19T07:47:43;7.00;;;4.68;;
71777;SDS011;59609;52.430;4.668;2023-10-19T07:50:10;5.57;;;4.68;;
71777;SDS011;59609;52.430;4.668;2023-10-19T07:52:37;4.65;;;4.35;;
71777;SDS011;59609;52.430;4.668;2023-10-19T07:55:04;7.00;;;4.95;;
71777;SDS011;59609;52.430;4.668;2023-10-19T07:57:29;6.63;;;5.13;;
71777;SDS011;59609;52.430;4.668;2023-10-19T07:59:54;6.50;;;4.68;;
71777;SDS011;59609;52.430;4.668;2023-10-19T08:02:21;7.90;;;5.03;;
71777;SDS011;59609;52.430;4.668;2023-10-19T08:04:49;8.35;;;5.15;;
71777;SDS011;59609;52.430;4.668;2023-10-19T08:07:14;5.53;;;4.67;;
71777;SDS011;59609;52.430;4.668;2023-10-19T08:09:39;8.23;;;5.00;;
71777;SDS011;59609;52.430;4.668;2023-10-19T08:12:04;5.13;;;4.70;;
71777;SDS011;59609;52.430;4.668;2023-10-19T08:14:30;10.45;;;6.00;;
71777;SDS011;59609;52.430;4.668;2023-10-19T08:16:55;5.17;;;4.60;;
71777;SDS011;59609;52.430;4.668;2023-10-19T08:19:21;7.07;;;4.93;;
71777;SDS011;59609;52.430;4.668;2023-10-19T08:21:47;5.10;;;4.60;;
71777;SDS011;59609;52.430;4.668;2023-10-19T08:24:12;7.13;;;4.73;;
71777;SDS011;59609;52.430;4.668;2023-10-19T08:26:41;9.40;;;4.72;;
71777;SDS011;59609;52.430;4.668;2023-10-19T08:29:07;7.38;;;5.13;;
71777;SDS011;59609;52.430;4.668;2023-10-19T08:31:38;7.32;;;5.03;;
71777;SDS011;59609;52.430;4.668;2023-10-19T08:34:04;5.80;;;4.95;;
71777;SDS011;59609;52.430;4.668;2023-10-19T08:36:30;5.75;;;4.82;;
71777;SDS011;59609;52.430;4.668;2023-10-19T08:38:56;9.68;;;5.13;;
71777;SDS011;59609;52.430;4.668;2023-10-19T08:41:21;6.57;;;5.60;;
71777;SDS011;59609;52.430;4.668;2023-10-19T08:43:46;7.80;;;5.37;;
71777;SDS011;59609;52.430;4.668;2023-10-19T08:46:13;5.43;;;4.40;;
71777;SDS011;59609;52.430;4.668;2023-10-19T08:48:39;6.97;;;5.20;;
71777;SDS011;59609;52.430;4.668;2023-10-19T08:51:09;7.55;;;4.95;;
71777;SDS011;59609;52.430;4.668;2023-10-19T08:53:39;5.70;;;5.20;;
71777;SDS011;59609;52.430;4.668;2023-10-19T08:56:06;6.80;;;5.50;;
71777;SDS011;59609;52.430;4.668;2023-10-19T08:58:32;19.45;;;6.68;;
71777;SDS011;59609;52.430;4.668;2023-10-19T09:00:57;7.22;;;5.22;;
71777;SDS011;59609;52.430;4.668;2023-10-19T09:03:25;9.97;;;5.37;;
71777;SDS011;59609;52.430;4.668;2023-10-19T09:05:50;7.75;;;6.00;;
71777;SDS011;59609;52.430;4.668;2023-10-19T09:08:16;7.32;;;5.50;;
71777;SDS011;59609;52.430;4.668;2023-10-19T09:10:42;7.90;;;6.10;;
71777;SDS011;59609;52.430;4.668;2023-10-19T09:13:10;9.77;;;6.18;;
71777;SDS011;59609;52.430;4.668;2023-10-19T09:15:37;9.75;;;5.93;;
71777;SDS011;59609;52.430;4.668;2023-10-19T09:20:41;7.57;;;5.97;;
71777;SDS011;59609;52.430;4.668;2023-10-19T09:23:22;7.22;;;5.55;;
71777;SDS011;59609;52.430;4.668;2023-10-19T09:25:49;7.18;;;5.28;;
71777;SDS011;59609;52.430;4.668;2023-10-19T09:28:14;14.35;;;6.50;;
71777;SDS011;59609;52.430;4.668;2023-10-19T09:30:39;10.40;;;5.53;;
71777;SDS011;59609;52.430;4.668;2023-10-19T09:33:05;10.93;;;5.88;;
71777;SDS011;59609;52.430;4.668;2023-10-19T09:35:32;7.22;;;5.68;;
71777;SDS011;59609;52.430;4.668;2023-10-19T09:37:57;6.88;;;5.78;;
71777;SDS011;59609;52.430;4.668;2023-10-19T09:40:22;7.90;;;4.53;;
71777;SDS011;59609;52.430;4.668;2023-10-19T09:42:49;8.63;;;5.90;;
71777;SDS011;59609;52.430;4.668;2023-10-19T09:45:18;8.07;;;5.53;;
71777;SDS011;59609;52.430;4.668;2023-10-19T09:47:45;6.57;;;5.13;;
71777;SDS011;59609;52.430;4.668;2023-10-19T09:50:13;6.07;;;5.28;;
71777;SDS011;59609;52.430;4.668;2023-10-19T09:52:39;6.03;;;4.80;;
71777;SDS011;59609;52.430;4.668;2023-10-19T09:55:24;6.60;;;5.50;;
71777;SDS011;59609;52.430;4.668;2023-10-19T09:57:53;9.02;;;5.13;;
71777;SDS011;59609;52.430;4.668;2023-10-19T10:00:20;8.10;;;5.22;;
71777;SDS011;59609;52.430;4.668;2023-10-19T10:02:48;11.57;;;5.78;;
71777;SDS011;59609;52.430;4.668;2023-10-19T10:10:41;7.70;;;5.10;;
71777;SDS011;59609;52.430;4.668;2023-10-19T10:16:01;12.65;;;5.25;;
71777;SDS011;59609;52.430;4.668;2023-10-19T10:18:32;10.88;;;5.38;;
71777;SDS011;59609;52.430;4.668;2023-10-19T10:23:37;13.50;;;6.15;;
71777;SDS011;59609;52.430;4.668;2023-10-19T10:26:04;8.85;;;5.45;;
71777;SDS011;59609;52.430;4.668;2023-10-19T10:28:33;11.25;;;6.68;;
71777;SDS011;59609;52.430;4.668;2023-10-19T10:36:07;8.70;;;5.68;;
71777;SDS011;59609;52.430;4.668;2023-10-19T10:38:35;9.32;;;5.55;;
71777;SDS011;59609;52.430;4.668;2023-10-19T10:43:26;9.45;;;3.42;;
71777;SDS011;59609;52.430;4.668;2023-10-19T10:45:52;10.38;;;3.50;;
71777;SDS011;59609;52.430;4.668;2023-10-19T10:48:18;12.03;;;3.87;;
71777;SDS011;59609;52.430;4.668;2023-10-19T10:50:47;7.78;;;3.22;;
71777;SDS011;59609;52.430;4.668;2023-10-19T10:53:13;12.67;;;6.33;;
71777;SDS011;59609;52.430;4.668;2023-10-19T10:55:38;7.95;;;5.75;;
71777;SDS011;59609;52.430;4.668;2023-10-19T10:58:04;14.15;;;6.18;;
71777;SDS011;59609;52.430;4.668;2023-10-19T11:00:29;15.25;;;5.95;;
71777;SDS011;59609;52.430;4.668;2023-10-19T11:03:04;9.70;;;5.38;;
71777;SDS011;59609;52.430;4.668;2023-10-19T11:05:32;10.05;;;5.68;;
71777;SDS011;59609;52.430;4.668;2023-10-19T11:10:31;8.57;;;6.03;;
71777;SDS011;59609;52.430;4.668;2023-10-19T11:13:15;12.30;;;5.18;;
71777;SDS011;59609;52.430;4.668;2023-10-19T11:21:01;10.43;;;4.80;;
71777;SDS011;59609;52.430;4.668;2023-10-19T11:23:36;12.77;;;5.70;;
71777;SDS011;59609;52.430;4.668;2023-10-19T11:26:01;9.95;;;5.38;;
71777;SDS011;59609;52.430;4.668;2023-10-19T11:28:27;11.40;;;5.75;;
71777;SDS011;59609;52.430;4.668;2023-10-19T11:30:54;14.07;;;6.28;;
71777;SDS011;59609;52.430;4.668;2023-10-19T11:33:20;15.87;;;6.67;;
71777;SDS011;59609;52.430;4.668;2023-10-19T11:35:49;12.93;;;5.55;;
71777;SDS011;59609;52.430;4.668;2023-10-19T11:38:14;9.70;;;5.17;;
71777;SDS011;59609;52.430;4.668;2023-10-19T11:40:39;9.13;;;5.33;;
71777;SDS011;59609;52.430;4.668;2023-10-19T11:43:04;8.67;;;5.27;;
71777;SDS011;59609;52.430;4.668;2023-10-19T11:45:30;9.40;;;5.67;;
71777;SDS011;59609;52.430;4.668;2023-10-19T11:47:55;9.48;;;5.20;;
71777;SDS011;59609;52.430;4.668;2023-10-19T11:50:21;10.45;;;4.30;;
71777;SDS011;59609;52.430;4.668;2023-10-19T11:52:48;13.73;;;4.10;;
71777;SDS011;59609;52.430;4.668;2023-10-19T11:55:13;11.40;;;5.10;;
71777;SDS011;59609;52.430;4.668;2023-10-19T11:57:39;7.93;;;4.60;;
71777;SDS011;59609;52.430;4.668;2023-10-19T12:00:05;9.98;;;4.88;;
71777;SDS011;59609;52.430;4.668;2023-10-19T12:02:34;15.48;;;4.60;;
71777;SDS011;59609;52.430;4.668;2023-10-19T12:05:01;9.05;;;4.35;;
71777;SDS011;59609;52.430;4.668;2023-10-19T12:07:26;11.10;;;5.38;;
71777;SDS011;59609;52.430;4.668;2023-10-19T12:09:51;7.17;;;5.90;;
71777;SDS011;59609;52.430;4.668;2023-10-19T12:12:17;13.50;;;5.60;;
71777;SDS011;59609;52.430;4.668;2023-10-19T12:14:42;8.53;;;4.73;;
71777;SDS011;59609;52.430;4.668;2023-10-19T12:17:08;12.30;;;4.90;;
71777;SDS011;59609;52.430;4.668;2023-10-19T12:19:33;7.03;;;5.38;;
71777;SDS011;59609;52.430;4.668;2023-10-19T12:21:59;10.90;;;5.17;;
71777;SDS011;59609;52.430;4.668;2023-10-19T12:24:24;12.68;;;4.82;;
71777;SDS011;59609;52.430;4.668;2023-10-19T12:26:53;13.63;;;5.07;;
71777;SDS011;59609;52.430;4.668;2023-10-19T12:29:18;7.80;;;4.85;;
71777;SDS011;59609;52.430;4.668;2023-10-19T12:31:46;12.52;;;5.40;;
71777;SDS011;59609;52.430;4.668;2023-10-19T12:34:11;7.68;;;4.38;;
71777;SDS011;59609;52.430;4.668;2023-10-19T12:36:37;9.07;;;4.27;;
71777;SDS011;59609;52.430;4.668;2023-10-19T12:39:02;11.30;;;5.38;;
71777;SDS011;59609;52.430;4.668;2023-10-19T12:41:30;8.77;;;4.45;;
71777;SDS011;59609;52.430;4.668;2023-10-19T12:43:56;8.32;;;4.35;;
71777;SDS011;59609;52.430;4.668;2023-10-19T12:46:33;10.60;;;5.13;;
71777;SDS011;59609;52.430;4.668;2023-10-19T12:49:01;10.07;;;4.38;;
71777;SDS011;59609;52.430;4.668;2023-10-19T12:51:27;7.35;;;4.40;;
71777;SDS011;59609;52.430;4.668;2023-10-19T12:53:53;7.67;;;4.50;;
71777;SDS011;59609;52.430;4.668;2023-10-19T12:56:19;11.43;;;4.03;;
71777;SDS011;59609;52.430;4.668;2023-10-19T12:58:44;12.02;;;4.97;;
71777;SDS011;59609;52.430;4.668;2023-10-19T13:01:10;10.40;;;4.95;;
71777;SDS011;59609;52.430;4.668;2023-10-19T13:03:43;8.57;;;4.72;;
71777;SDS011;59609;52.430;4.668;2023-10-19T13:06:12;11.73;;;4.72;;
71777;SDS011;59609;52.430;4.668;2023-10-19T13:08:38;9.60;;;4.75;;
71777;SDS011;59609;52.430;4.668;2023-10-19T13:11:05;9.77;;;4.47;;
71777;SDS011;59609;52.430;4.668;2023-10-19T13:13:31;11.65;;;4.43;;
71777;SDS011;59609;52.430;4.668;2023-10-19T13:15:56;13.17;;;5.27;;
71777;SDS011;59609;52.430;4.668;2023-10-19T13:18:21;15.20;;;4.83;;
71777;SDS011;59609;52.430;4.668;2023-10-19T13:20:52;9.15;;;4.57;;
71777;SDS011;59609;52.430;4.668;2023-10-19T13:23:19;10.20;;;5.13;;
71777;SDS011;59609;52.430;4.668;2023-10-19T13:25:48;9.63;;;5.50;;
71777;SDS011;59609;52.430;4.668;2023-10-19T13:28:22;10.80;;;4.95;;
71777;SDS011;59609;52.430;4.668;2023-10-19T13:30:48;8.93;;;5.30;;
71777;SDS011;59609;52.430;4.668;2023-10-19T13:33:14;9.50;;;4.47;;
71777;SDS011;59609;52.430;4.668;2023-10-19T13:35:40;13.88;;;4.63;;
71777;SDS011;59609;52.430;4.668;2023-10-19T13:38:06;10.98;;;2.85;;
71777;SDS011;59609;52.430;4.668;2023-10-19T13:40:32;10.93;;;3.47;;
71777;SDS011;59609;52.430;4.668;2023-10-19T13:42:58;15.50;;;6.57;;
71777;SDS011;59609;52.430;4.668;2023-10-19T13:45:23;9.05;;;4.60;;
71777;SDS011;59609;52.430;4.668;2023-10-19T13:47:49;14.05;;;6.38;;
71777;SDS011;59609;52.430;4.668;2023-10-19T13:50:14;8.80;;;4.80;;
71777;SDS011;59609;52.430;4.668;2023-10-19T13:52:39;10.85;;;5.10;;
71777;SDS011;59609;52.430;4.668;2023-10-19T13:55:05;13.37;;;4.93;;
71777;SDS011;59609;52.430;4.668;2023-10-19T13:57:32;9.35;;;5.07;;
71777;SDS011;59609;52.430;4.668;2023-10-19T13:59:57;9.20;;;4.72;;
71777;SDS011;59609;52.430;4.668;2023-10-19T14:02:22;14.53;;;5.67;;
71777;SDS011;59609;52.430;4.668;2023-10-19T14:04:48;15.03;;;4.80;;
71777;SDS011;59609;52.430;4.668;2023-10-19T14:07:13;13.82;;;5.03;;
71777;SDS011;59609;52.430;4.668;2023-10-19T14:09:38;11.90;;;5.33;;
71777;SDS011;59609;52.430;4.668;2023-10-19T14:12:04;10.80;;;5.60;;
71777;SDS011;59609;52.430;4.668;2023-10-19T14:14:29;7.47;;;4.80;;
71777;SDS011;59609;52.430;4.668;2023-10-19T14:16:55;13.40;;;5.05;;
71777;SDS011;59609;52.430;4.668;2023-10-19T14:19:21;10.27;;;4.47;;
71777;SDS011;59609;52.430;4.668;2023-10-19T14:21:46;11.35;;;5.35;;
71777;SDS011;59609;52.430;4.668;2023-10-19T14:24:13;11.63;;;4.50;;
71777;SDS011;59609;52.430;4.668;2023-10-19T14:26:38;12.20;;;4.70;;
71777;SDS011;59609;52.430;4.668;2023-10-19T14:29:03;13.60;;;4.65;;
71777;SDS011;59609;52.430;4.668;2023-10-19T14:31:29;12.73;;;4.83;;
71777;SDS011;59609;52.430;4.668;2023-10-19T14:33:54;12.40;;;5.00;;
71777;SDS011;59609;52.430;4.668;2023-10-19T14:36:19;10.20;;;4.63;;
71777;SDS011;59609;52.430;4.668;2023-10-19T14:38:44;11.87;;;4.60;;
71777;SDS011;59609;52.430;4.668;2023-10-19T14:41:11;12.55;;;4.82;;
71777;SDS011;59609;52.430;4.668;2023-10-19T14:43:36;11.48;;;4.97;;
71777;SDS011;59609;52.430;4.668;2023-10-19T14:46:04;16.13;;;5.78;;
71777;SDS011;59609;52.430;4.668;2023-10-19T14:48:29;14.98;;;4.15;;
71777;SDS011;59609;52.430;4.668;2023-10-19T14:50:58;11.60;;;3.87;;
71777;SDS011;59609;52.430;4.668;2023-10-19T14:53:23;11.73;;;4.13;;
71777;SDS011;59609;52.430;4.668;2023-10-19T14:55:49;9.85;;;3.78;;
71777;SDS011;59609;52.430;4.668;2023-10-19T14:58:15;8.77;;;2.50;;
71777;SDS011;59609;52.430;4.668;2023-10-19T15:00:40;7.03;;;2.63;;
71777;SDS011;59609;52.430;4.668;2023-10-19T15:03:10;8.20;;;2.42;;
71777;SDS011;59609;52.430;4.668;2023-10-19T15:05:36;12.77;;;3.35;;
71777;SDS011;59609;52.430;4.668;2023-10-19T15:08:02;9.50;;;2.97;;
71777;SDS011;59609;52.430;4.668;2023-10-19T15:10:29;10.48;;;4.53;;
71777;SDS011;59609;52.430;4.668;2023-10-19T15:12:55;7.57;;;2.60;;
71777;SDS011;59609;52.430;4.668;2023-10-19T15:15:21;9.27;;;4.22;;